Detalii statie RANDUNICA PREST ANDRID [00001984]

Toti senzorii

Date Temperatura solului [C]Precipitatii [mm]Voltaj baterie [mV]Leaf Wetness [Min]HC Air temperature [C]HC Relative humidity [%]Punctul de roua [C]
medieminmaxsumaultimatimpmedieminmaxmediemediemin
2019-02-21 00:00:00 4.5 4.4 4.6 0 6864 2.73 2.36 3.03 100 2.7 2.3
2019-02-21 01:00:00 4.3 4.2 4.5 0 6864 1.67 1.29 2.47 100 1.6 1.2
2019-02-21 02:00:00 4 3.9 4.2 0 6864 3.04 2.56 3.72 100 3 2.5
2019-02-21 03:00:00 3.9 3.8 4 0 6854 3.01 2.3 3.53 100 2.9 2.3
2019-02-21 04:00:00 3.8 3.7 3.9 0 6854 2.92 2.35 3.38 100 2.8 2.3
2019-02-21 05:00:00 3.7 3.5 3.8 0 6854 1.77 1.31 2.45 100 1.7 1.3
2019-02-21 06:00:00 3.5 3.4 3.7 0 6844 1.18 0.76 1.49 100 1.1 0.7
2019-02-21 07:00:00 3.3 3.3 3.5 0 6834 0.94 0.31 1.53 100 0.9 0.3
2019-02-21 08:00:00 3.2 3.1 3.3 0 6826 1.85 1.47 2.24 100 1.8 1.4
2019-02-21 09:00:00 3.1 3 3.3 0 6874 2.88 2.27 3.36 100 2.8 2.2
2019-02-21 10:00:00 3.1 3.1 3.4 0 7040 3.69 3.17 4.34 100 3.6 3.1
2019-02-21 11:00:00 3.2 3.1 3.3 0 7274 5.03 4.41 5.67 100 4.9 4.4
2019-02-21 12:00:00 3.3 3.2 3.6 0 7294 6.24 5.86 6.7 100 6.2 5.8
2019-02-21 13:00:00 3.6 3.5 3.9 0 7284 8.5 7.45 9.05 91.11 7 6.2
2019-02-21 14:00:00 4 3.8 4.2 0 7284 9.91 9.19 10.54 82.25 6.8 6.4
2019-02-21 15:00:00 4.5 4.3 4.8 0 7284 10.5 10.07 10.93 75.76 6.2 5.4
2019-02-21 16:00:00 5 4.8 5.2 0 7158 10.19 9.98 10.42 74.43 5.7 5.5
2019-02-21 17:00:00 5.2 5.1 5.5 0 7128 9.87 9.62 10.16 73.24 5.1 5
2019-02-21 18:00:00 5.4 5.3 5.5 0 7030 8.79 7.38 9.75 78.82 5.1 5
2019-02-21 19:00:00 5.4 5.3 5.5 0 6992 6.41 5.26 7.37 91.09 4.9 4.3
2019-02-21 20:00:00 5.3 5.2 5.4 0 6904 4.88 4.49 5.44 95.86 4.1 4
2019-02-21 21:00:00 5.2 5.1 5.3 0 6894 5.53 5.26 6.05 91.09 4 3.9
2019-02-21 22:00:00 4.9 4.9 5 0 6874 6.42 6.13 6.62 84.29 3.8 3.7
2019-02-21 23:00:00 4.8 4.6 5 0 6864 6.46 6.3 6.66 84.79 3.9 3.8
2019-02-22 00:00:00 4.7 4.7 4.8 0 6854 6.3 6.24 6.39 86.64 4.1 4
2019-02-22 01:00:00 4.6 4.6 4.8 0 6854 5.87 5.32 6.36 93.02 4.7 4.1
2019-02-22 02:00:00 4.6 4.5 4.8 0.4 6864 4.95 4.52 5.24 100 4.9 4.5
2019-02-22 03:00:00 4.6 4.6 4.8 1.6 6864 4.08 3.77 4.51 100 4 3.7
2019-02-22 04:00:00 4.5 4.4 4.6 2 6854 3.51 3.36 3.71 100 3.4 3.3
2019-02-22 05:00:00 4.4 4.4 4.5 0.2 6844 3.35 3.32 3.38 100 3.3 3.3
2019-02-22 06:00:00 4.4 4.4 4.5 0.2 6854 3.34 3.27 3.43 100 3.3 3.2
2019-02-22 07:00:00 4.3 4.3 4.4 0.4 6854 3.43 3.41 3.48 100 3.4 3.4
2019-02-22 08:00:00 4.2 4.2 4.3 0.8 6834 3.48 3.45 3.55 100 3.4 3.4
2019-02-22 09:00:00 4.2 4.2 4.3 0.6 6864 3.75 3.53 4.06 100 3.6 3.5
2019-02-22 10:00:00 4.2 4.2 4.3 0.2 6884 4.23 4.1 4.43 100 4.1 4.1
2019-02-22 11:00:00 4.2 4.2 4.4 0 6922 4.78 4.62 4.95 100 4.7 4.6
2019-02-22 12:00:00 4.3 4.2 4.4 0 6894 5.11 4.97 5.28 100 5 4.9
2019-02-22 13:00:00 4.4 4.4 4.5 0.4 6894 5.06 4.1 5.44 100 5 4.1
2019-02-22 14:00:00 4.4 4.4 4.6 0 7138 3.29 2.98 3.89 100 3.2 2.9
2019-02-22 15:00:00 4.5 4.4 4.6 0 7294 3.85 3.03 4.32 95.62 3.1 1.6
2019-02-22 16:00:00 4.5 4.4 4.6 0 7294 3.27 2.75 3.64 85.74 0.9 -0.5
2019-02-22 17:00:00 4.6 4.6 4.8 0 7284 1.55 0.98 2.55 70.99 -3.1 -4.5
2019-02-22 18:00:00 4.5 4.3 4.6 0 7216 0.14 -0.57 0.9 65.16 -5.6 -6.3
2019-02-22 19:00:00 4.2 4.1 4.5 0 7128 -1.19 -1.76 -0.62 67.47 -6.3 -7.2
2019-02-22 20:00:00 3.9 3.8 4.2 0 7000 -2.16 -2.55 -1.84 64.94 -7.8 -8.5
2019-02-22 21:00:00 3.6 3.5 3.8 0 6972 -2.95 -3.19 -2.69 66.15 -8.2 -9
2019-02-22 22:00:00 3.4 3.2 3.6 0 6942 -3.42 -3.59 -3.22 66.1 -8.7 -8.9